sensor_id;sensor_type;location;lat;lon;timestamp;P1;P2;P0
55304;PMS7003;65692;51.378;19.824;2023-04-24T00:23:23;60.50;46.50;31.00
55304;PMS7003;65692;51.378;19.824;2023-04-24T00:26:46;63.75;49.00;34.00
55304;PMS7003;65692;51.378;19.824;2023-04-24T00:35:26;65.00;50.75;35.00
55304;PMS7003;65692;51.378;19.824;2023-04-24T00:37:56;65.00;48.50;32.50
55304;PMS7003;65692;51.378;19.824;2023-04-24T00:46:22;64.00;49.00;33.00
55304;PMS7003;65692;51.378;19.824;2023-04-24T01:48:30;68.50;54.00;36.50
55304;PMS7003;65692;51.378;19.824;2023-04-24T02:03:22;69.50;54.25;36.50
55304;PMS7003;65692;51.378;19.824;2023-04-24T02:22:44;62.50;51.00;34.00
55304;PMS7003;65692;51.378;19.824;2023-04-24T02:28:52;68.25;54.25;35.00
55304;PMS7003;65692;51.378;19.824;2023-04-24T02:40:36;68.00;52.25;34.00
55304;PMS7003;65692;51.378;19.824;2023-04-24T02:43:28;67.75;52.00;34.00
55304;PMS7003;65692;51.378;19.824;2023-04-24T02:45:57;60.75;47.75;33.00
55304;PMS7003;65692;51.378;19.824;2023-04-24T03:15:12;65.00;51.50;34.50
55304;PMS7003;65692;51.378;19.824;2023-04-24T03:20:39;60.25;46.75;31.25
55304;PMS7003;65692;51.378;19.824;2023-04-24T03:30:26;58.75;45.50;29.50
55304;PMS7003;65692;51.378;19.824;2023-04-24T05:36:59;68.00;54.00;36.00
55304;PMS7003;65692;51.378;19.824;2023-04-24T05:39:26;68.25;51.50;33.00
55304;PMS7003;65692;51.378;19.824;2023-04-24T05:41:52;60.25;47.75;31.00
55304;PMS7003;65692;51.378;19.824;2023-04-24T05:44:19;60.75;51.00;33.50
55304;PMS7003;65692;51.378;19.824;2023-04-24T05:46:45;63.75;49.75;33.25
55304;PMS7003;65692;51.378;19.824;2023-04-24T05:49:12;64.00;49.25;33.00
55304;PMS7003;65692;51.378;19.824;2023-04-24T05:51:38;51.75;42.00;29.00
55304;PMS7003;65692;51.378;19.824;2023-04-24T05:54:06;45.67;36.00;24.67
55304;PMS7003;65692;51.378;19.824;2023-04-24T05:56:32;41.33;36.00;25.00
55304;PMS7003;65692;51.378;19.824;2023-04-24T05:58:59;38.33;34.00;24.67
55304;PMS7003;65692;51.378;19.824;2023-04-24T06:01:25;34.00;31.00;22.00
55304;PMS7003;65692;51.378;19.824;2023-04-24T06:03:52;32.50;31.25;23.50
55304;PMS7003;65692;51.378;19.824;2023-04-24T06:06:19;34.00;32.67;23.00
55304;PMS7003;65692;51.378;19.824;2023-04-24T06:08:46;35.00;31.00;22.75
55304;PMS7003;65692;51.378;19.824;2023-04-24T06:11:12;38.00;32.25;22.25
55304;PMS7003;65692;51.378;19.824;2023-04-24T06:13:39;32.50;32.00;21.00
55304;PMS7003;65692;51.378;19.824;2023-04-24T06:16:05;34.25;29.75;21.00
55304;PMS7003;65692;51.378;19.824;2023-04-24T06:18:32;37.50;30.50;21.00
55304;PMS7003;65692;51.378;19.824;2023-04-24T06:20:59;31.50;31.50;23.00
55304;PMS7003;65692;51.378;19.824;2023-04-24T06:23:25;34.25;29.75;21.50
55304;PMS7003;65692;51.378;19.824;2023-04-24T06:25:52;33.00;31.50;21.25
55304;PMS7003;65692;51.378;19.824;2023-04-24T06:28:18;32.00;27.50;21.00
55304;PMS7003;65692;51.378;19.824;2023-04-24T06:30:44;38.25;32.50;21.50
55304;PMS7003;65692;51.378;19.824;2023-04-24T06:33:11;32.25;27.75;20.50
55304;PMS7003;65692;51.378;19.824;2023-04-24T06:35:46;34.00;32.00;20.50
55304;PMS7003;65692;51.378;19.824;2023-04-24T06:38:12;34.00;31.00;22.00
55304;PMS7003;65692;51.378;19.824;2023-04-24T06:40:39;32.75;30.00;22.00
55304;PMS7003;65692;51.378;19.824;2023-04-24T06:43:05;36.25;29.75;20.75
55304;PMS7003;65692;51.378;19.824;2023-04-24T06:45:32;30.50;28.25;22.00
55304;PMS7003;65692;51.378;19.824;2023-04-24T06:47:58;32.50;29.25;22.00
55304;PMS7003;65692;51.378;19.824;2023-04-24T06:50:25;29.00;28.25;20.00
55304;PMS7003;65692;51.378;19.824;2023-04-24T06:52:52;28.50;25.00;20.50
55304;PMS7003;65692;51.378;19.824;2023-04-24T06:55:18;34.00;31.75;21.75
55304;PMS7003;65692;51.378;19.824;2023-04-24T06:57:45;29.00;27.00;20.00
55304;PMS7003;65692;51.378;19.824;2023-04-24T07:00:11;25.25;24.50;20.00
55304;PMS7003;65692;51.378;19.824;2023-04-24T07:02:38;26.25;22.25;17.75
55304;PMS7003;65692;51.378;19.824;2023-04-24T07:05:05;29.25;27.75;21.50
55304;PMS7003;65692;51.378;19.824;2023-04-24T07:07:33;30.00;23.50;18.75
55304;PMS7003;65692;51.378;19.824;2023-04-24T07:09:59;29.50;23.00;17.50
55304;PMS7003;65692;51.378;19.824;2023-04-24T07:12:25;19.25;16.50;13.75
55304;PMS7003;65692;51.378;19.824;2023-04-24T07:14:52;16.00;16.00;15.00
55304;PMS7003;65692;51.378;19.824;2023-04-24T07:17:19;19.00;16.50;11.75
55304;PMS7003;65692;51.378;19.824;2023-04-24T07:19:45;18.00;14.00;12.75
55304;PMS7003;65692;51.378;19.824;2023-04-24T07:22:11;14.00;13.50;10.75
55304;PMS7003;65692;51.378;19.824;2023-04-24T07:24:46;19.00;16.75;12.75
55304;PMS7003;65692;51.378;19.824;2023-04-24T07:27:12;18.50;15.75;14.00
55304;PMS7003;65692;51.378;19.824;2023-04-24T07:29:41;13.00;11.75;10.50
55304;PMS7003;65692;51.378;19.824;2023-04-24T07:32:08;14.00;13.50;11.50
55304;PMS7003;65692;51.378;19.824;2023-04-24T07:34:35;16.00;15.25;12.25
55304;PMS7003;65692;51.378;19.824;2023-04-24T07:37:01;17.75;14.00;11.00
55304;PMS7003;65692;51.378;19.824;2023-04-24T07:39:28;16.25;13.50;10.50
55304;PMS7003;65692;51.378;19.824;2023-04-24T07:41:55;17.25;14.50;10.25
55304;PMS7003;65692;51.378;19.824;2023-04-24T07:44:21;13.75;12.25;10.50
55304;PMS7003;65692;51.378;19.824;2023-04-24T07:46:48;11.00;9.50;7.75
55304;PMS7003;65692;51.378;19.824;2023-04-24T07:49:14;14.50;13.00;10.00
55304;PMS7003;65692;51.378;19.824;2023-04-24T07:51:44;16.50;13.00;10.50
55304;PMS7003;65692;51.378;19.824;2023-04-24T07:54:11;12.50;10.50;9.00
55304;PMS7003;65692;51.378;19.824;2023-04-24T07:56:38;12.75;12.25;10.75
55304;PMS7003;65692;51.378;19.824;2023-04-24T07:59:05;12.00;11.00;9.25
55304;PMS7003;65692;51.378;19.824;2023-04-24T08:01:32;13.00;11.75;10.25
55304;PMS7003;65692;51.378;19.824;2023-04-24T08:03:58;12.00;12.00;9.25
55304;PMS7003;65692;51.378;19.824;2023-04-24T08:06:25;13.75;13.50;11.00
55304;PMS7003;65692;51.378;19.824;2023-04-24T08:08:56;12.75;11.50;11.00
55304;PMS7003;65692;51.378;19.824;2023-04-24T08:11:23;11.75;11.75;9.50
55304;PMS7003;65692;51.378;19.824;2023-04-24T08:13:50;12.75;10.00;8.00
55304;PMS7003;65692;51.378;19.824;2023-04-24T08:16:16;13.25;10.75;9.50
55304;PMS7003;65692;51.378;19.824;2023-04-24T08:18:43;12.50;11.50;10.00
55304;PMS7003;65692;51.378;19.824;2023-04-24T08:21:09;13.50;12.00;10.25
55304;PMS7003;65692;51.378;19.824;2023-04-24T08:23:37;12.25;10.25;9.25
55304;PMS7003;65692;51.378;19.824;2023-04-24T08:26:03;11.25;11.25;9.75
55304;PMS7003;65692;51.378;19.824;2023-04-24T08:28:30;12.00;12.00;9.75
55304;PMS7003;65692;51.378;19.824;2023-04-24T08:30:57;20.25;15.25;12.75
55304;PMS7003;65692;51.378;19.824;2023-04-24T08:33:23;10.50;10.50;9.00
55304;PMS7003;65692;51.378;19.824;2023-04-24T08:35:50;16.25;13.50;10.25
55304;PMS7003;65692;51.378;19.824;2023-04-24T08:38:16;13.50;13.50;12.50
55304;PMS7003;65692;51.378;19.824;2023-04-24T08:40:43;12.50;12.25;10.25
55304;PMS7003;65692;51.378;19.824;2023-04-24T08:43:12;12.25;12.25;10.75
55304;PMS7003;65692;51.378;19.824;2023-04-24T08:45:40;12.50;12.50;10.75
55304;PMS7003;65692;51.378;19.824;2023-04-24T08:48:07;13.00;12.50;10.50
55304;PMS7003;65692;51.378;19.824;2023-04-24T08:50:51;13.75;13.50;11.00
55304;PMS7003;65692;51.378;19.824;2023-04-24T08:53:18;13.75;13.25;10.00
55304;PMS7003;65692;51.378;19.824;2023-04-24T08:55:46;14.00;13.50;11.00
55304;PMS7003;65692;51.378;19.824;2023-04-24T08:58:14;12.25;9.75;7.25
55304;PMS7003;65692;51.378;19.824;2023-04-24T09:00:41;13.25;13.25;9.75
55304;PMS7003;65692;51.378;19.824;2023-04-24T09:03:13;14.75;11.75;10.00
55304;PMS7003;65692;51.378;19.824;2023-04-24T09:05:42;13.00;12.00;10.00
55304;PMS7003;65692;51.378;19.824;2023-04-24T09:08:12;13.00;11.25;9.50
55304;PMS7003;65692;51.378;19.824;2023-04-24T09:10:40;15.75;15.50;11.50
55304;PMS7003;65692;51.378;19.824;2023-04-24T09:13:07;15.75;12.50;9.50
55304;PMS7003;65692;51.378;19.824;2023-04-24T09:15:35;13.75;12.75;10.25
55304;PMS7003;65692;51.378;19.824;2023-04-24T09:18:02;11.75;10.75;9.25
55304;PMS7003;65692;51.378;19.824;2023-04-24T09:20:28;13.50;12.50;10.25
55304;PMS7003;65692;51.378;19.824;2023-04-24T09:22:56;15.00;15.00;11.75
55304;PMS7003;65692;51.378;19.824;2023-04-24T09:25:25;13.25;11.75;9.25
55304;PMS7003;65692;51.378;19.824;2023-04-24T09:27:58;16.75;15.75;12.25
55304;PMS7003;65692;51.378;19.824;2023-04-24T09:30:29;13.50;13.50;12.00
55304;PMS7003;65692;51.378;19.824;2023-04-24T09:33:14;17.75;15.25;10.75
55304;PMS7003;65692;51.378;19.824;2023-04-24T09:35:41;17.75;13.75;11.75
55304;PMS7003;65692;51.378;19.824;2023-04-24T09:38:09;13.75;13.75;11.25
55304;PMS7003;65692;51.378;19.824;2023-04-24T09:40:36;13.00;11.75;10.50
55304;PMS7003;65692;51.378;19.824;2023-04-24T09:43:09;16.00;13.50;9.75
55304;PMS7003;65692;51.378;19.824;2023-04-24T09:45:39;13.50;9.25;8.75
55304;PMS7003;65692;51.378;19.824;2023-04-24T09:48:09;15.75;14.50;10.00
55304;PMS7003;65692;51.378;19.824;2023-04-24T09:50:36;15.50;12.75;9.25
55304;PMS7003;65692;51.378;19.824;2023-04-24T09:53:04;21.50;18.75;14.25
55304;PMS7003;65692;51.378;19.824;2023-04-24T09:55:32;17.50;15.00;12.25
55304;PMS7003;65692;51.378;19.824;2023-04-24T09:57:58;14.00;14.00;9.75
55304;PMS7003;65692;51.378;19.824;2023-04-24T10:00:30;12.50;12.50;10.00
55304;PMS7003;65692;51.378;19.824;2023-04-24T10:03:03;13.25;12.00;10.00
55304;PMS7003;65692;51.378;19.824;2023-04-24T10:05:33;11.75;11.75;9.50
55304;PMS7003;65692;51.378;19.824;2023-04-24T10:08:02;13.25;12.75;11.25
55304;PMS7003;65692;51.378;19.824;2023-04-24T10:10:29;12.75;12.75;10.75
55304;PMS7003;65692;51.378;19.824;2023-04-24T10:12:56;15.00;13.25;10.50
55304;PMS7003;65692;51.378;19.824;2023-04-24T10:15:23;13.25;12.75;11.25
55304;PMS7003;65692;51.378;19.824;2023-04-24T10:17:51;16.25;12.50;10.50
55304;PMS7003;65692;51.378;19.824;2023-04-24T10:20:21;13.75;12.75;10.25
55304;PMS7003;65692;51.378;19.824;2023-04-24T10:22:52;11.75;11.75;10.75
55304;PMS7003;65692;51.378;19.824;2023-04-24T10:25:28;11.75;11.75;9.75
55304;PMS7003;65692;51.378;19.824;2023-04-24T10:27:56;11.50;11.00;9.00
55304;PMS7003;65692;51.378;19.824;2023-04-24T10:30:32;12.75;12.00;10.00
55304;PMS7003;65692;51.378;19.824;2023-04-24T10:33:02;13.75;12.50;10.50
55304;PMS7003;65692;51.378;19.824;2023-04-24T10:35:34;13.00;13.00;11.00
55304;PMS7003;65692;51.378;19.824;2023-04-24T10:38:11;11.50;11.50;8.00
55304;PMS7003;65692;51.378;19.824;2023-04-24T10:40:39;14.50;13.75;11.25
55304;PMS7003;65692;51.378;19.824;2023-04-24T10:43:06;9.25;9.25;8.25
55304;PMS7003;65692;51.378;19.824;2023-04-24T10:45:34;14.75;13.25;10.50
55304;PMS7003;65692;51.378;19.824;2023-04-24T10:48:01;11.00;10.50;8.00
55304;PMS7003;65692;51.378;19.824;2023-04-24T10:50:47;14.25;12.75;10.00
55304;PMS7003;65692;51.378;19.824;2023-04-24T10:53:15;13.50;12.25;10.75
55304;PMS7003;65692;51.378;19.824;2023-04-24T10:55:43;10.75;10.75;8.50
55304;PMS7003;65692;51.378;19.824;2023-04-24T10:58:10;11.50;11.50;9.00
55304;PMS7003;65692;51.378;19.824;2023-04-24T11:00:37;9.75;8.00;7.75
55304;PMS7003;65692;51.378;19.824;2023-04-24T11:03:05;12.50;11.50;9.50
55304;PMS7003;65692;51.378;19.824;2023-04-24T11:05:51;13.50;13.50;11.00
55304;PMS7003;65692;51.378;19.824;2023-04-24T11:08:22;12.75;12.75;9.25
55304;PMS7003;65692;51.378;19.824;2023-04-24T11:10:56;11.25;10.75;9.25
55304;PMS7003;65692;51.378;19.824;2023-04-24T11:13:24;14.25;10.25;8.75
55304;PMS7003;65692;51.378;19.824;2023-04-24T11:19:03;11.00;10.25;8.75
55304;PMS7003;65692;51.378;19.824;2023-04-24T11:24:03;9.00;9.00;7.00
55304;PMS7003;65692;51.378;19.824;2023-04-24T11:26:47;11.25;11.25;10.00
55304;PMS7003;65692;51.378;19.824;2023-04-24T11:29:13;11.00;11.00;9.00
55304;PMS7003;65692;51.378;19.824;2023-04-24T11:31:40;10.00;10.00;9.00
55304;PMS7003;65692;51.378;19.824;2023-04-24T11:34:14;10.25;9.50;7.25
55304;PMS7003;65692;51.378;19.824;2023-04-24T11:36:43;11.00;11.00;9.75
55304;PMS7003;65692;51.378;19.824;2023-04-24T11:39:10;10.25;10.25;9.00
55304;PMS7003;65692;51.378;19.824;2023-04-24T11:41:37;7.75;6.00;5.00
55304;PMS7003;65692;51.378;19.824;2023-04-24T11:44:05;14.00;11.00;8.75
55304;PMS7003;65692;51.378;19.824;2023-04-24T11:46:32;13.25;12.00;9.50
55304;PMS7003;65692;51.378;19.824;2023-04-24T11:48:59;14.25;11.50;9.25
55304;PMS7003;65692;51.378;19.824;2023-04-24T11:51:26;10.50;10.00;8.25
55304;PMS7003;65692;51.378;19.824;2023-04-24T11:54:01;14.00;10.75;8.50
55304;PMS7003;65692;51.378;19.824;2023-04-24T11:56:29;12.75;12.00;9.50
55304;PMS7003;65692;51.378;19.824;2023-04-24T11:58:56;12.25;10.50;9.25
55304;PMS7003;65692;51.378;19.824;2023-04-24T12:01:22;9.50;9.50;8.25
55304;PMS7003;65692;51.378;19.824;2023-04-24T12:03:49;12.50;10.00;8.25
55304;PMS7003;65692;51.378;19.824;2023-04-24T12:06:17;10.50;8.75;7.75
55304;PMS7003;65692;51.378;19.824;2023-04-24T12:08:45;12.00;10.75;9.00
55304;PMS7003;65692;51.378;19.824;2023-04-24T12:11:14;10.50;10.25;7.25
55304;PMS7003;65692;51.378;19.824;2023-04-24T12:13:41;10.00;10.00;8.75
55304;PMS7003;65692;51.378;19.824;2023-04-24T12:16:07;10.75;10.75;7.00
55304;PMS7003;65692;51.378;19.824;2023-04-24T12:18:34;10.25;9.50;8.00
55304;PMS7003;65692;51.378;19.824;2023-04-24T12:21:22;9.50;9.00;8.00
55304;PMS7003;65692;51.378;19.824;2023-04-24T12:23:48;11.25;10.25;8.50
55304;PMS7003;65692;51.378;19.824;2023-04-24T12:26:18;9.75;9.75;7.00
55304;PMS7003;65692;51.378;19.824;2023-04-24T12:28:46;10.00;10.00;8.00
55304;PMS7003;65692;51.378;19.824;2023-04-24T12:31:12;8.50;8.50;7.00
55304;PMS7003;65692;51.378;19.824;2023-04-24T12:33:39;5.75;5.75;4.75
55304;PMS7003;65692;51.378;19.824;2023-04-24T12:36:06;9.75;9.75;7.75
55304;PMS7003;65692;51.378;19.824;2023-04-24T12:38:32;12.50;11.00;9.00
55304;PMS7003;65692;51.378;19.824;2023-04-24T12:41:07;6.25;6.25;5.50
55304;PMS7003;65692;51.378;19.824;2023-04-24T12:43:34;6.50;4.50;4.25
55304;PMS7003;65692;51.378;19.824;2023-04-24T12:46:01;9.50;9.50;8.75
55304;PMS7003;65692;51.378;19.824;2023-04-24T12:48:27;13.75;12.00;10.75
55304;PMS7003;65692;51.378;19.824;2023-04-24T12:50:54;6.75;6.75;6.25
55304;PMS7003;65692;51.378;19.824;2023-04-24T12:53:22;11.00;9.25;8.00
55304;PMS7003;65692;51.378;19.824;2023-04-24T12:55:49;8.75;7.75;6.75
55304;PMS7003;65692;51.378;19.824;2023-04-24T12:58:19;8.00;7.25;6.00
55304;PMS7003;65692;51.378;19.824;2023-04-24T13:00:46;7.00;7.00;6.00
55304;PMS7003;65692;51.378;19.824;2023-04-24T13:03:13;10.75;10.75;7.75
55304;PMS7003;65692;51.378;19.824;2023-04-24T13:05:41;11.25;10.25;8.50
55304;PMS7003;65692;51.378;19.824;2023-04-24T13:08:08;12.25;11.25;8.25
55304;PMS7003;65692;51.378;19.824;2023-04-24T13:10:34;10.00;8.00;6.75
55304;PMS7003;65692;51.378;19.824;2023-04-24T13:13:01;8.75;8.50;7.00
55304;PMS7003;65692;51.378;19.824;2023-04-24T13:15:27;9.75;9.50;8.00
55304;PMS7003;65692;51.378;19.824;2023-04-24T13:17:54;10.00;8.75;7.75
55304;PMS7003;65692;51.378;19.824;2023-04-24T13:20:20;10.00;8.00;7.00
55304;PMS7003;65692;51.378;19.824;2023-04-24T13:22:47;10.00;9.00;7.50
55304;PMS7003;65692;51.378;19.824;2023-04-24T13:25:13;8.75;8.75;8.00
55304;PMS7003;65692;51.378;19.824;2023-04-24T13:27:43;7.50;7.50;7.00
55304;PMS7003;65692;51.378;19.824;2023-04-24T13:30:10;10.25;10.25;9.00
55304;PMS7003;65692;51.378;19.824;2023-04-24T13:32:36;10.00;9.75;8.25
55304;PMS7003;65692;51.378;19.824;2023-04-24T13:35:03;9.25;9.25;8.00
55304;PMS7003;65692;51.378;19.824;2023-04-24T13:37:30;10.25;8.50;7.50
55304;PMS7003;65692;51.378;19.824;2023-04-24T13:39:56;11.50;11.00;9.50
55304;PMS7003;65692;51.378;19.824;2023-04-24T13:42:22;9.75;9.75;8.75
55304;PMS7003;65692;51.378;19.824;2023-04-24T13:44:49;12.25;10.25;8.75
55304;PMS7003;65692;51.378;19.824;2023-04-24T13:47:17;14.50;12.50;10.00
55304;PMS7003;65692;51.378;19.824;2023-04-24T13:49:43;12.00;10.50;8.75
55304;PMS7003;65692;51.378;19.824;2023-04-24T13:52:10;9.75;9.75;8.50
55304;PMS7003;65692;51.378;19.824;2023-04-24T13:54:36;11.00;11.00;9.75
55304;PMS7003;65692;51.378;19.824;2023-04-24T13:57:03;10.75;10.00;8.00
55304;PMS7003;65692;51.378;19.824;2023-04-24T13:59:29;10.50;7.75;6.75
55304;PMS7003;65692;51.378;19.824;2023-04-24T14:01:56;10.25;8.75;7.75
55304;PMS7003;65692;51.378;19.824;2023-04-24T14:04:22;9.50;9.50;7.50
55304;PMS7003;65692;51.378;19.824;2023-04-24T14:06:49;9.25;9.00;6.75
55304;PMS7003;65692;51.378;19.824;2023-04-24T14:09:15;8.00;7.75;6.50
55304;PMS7003;65692;51.378;19.824;2023-04-24T14:11:42;6.75;6.25;6.00
55304;PMS7003;65692;51.378;19.824;2023-04-24T14:14:08;11.50;7.25;6.25
55304;PMS7003;65692;51.378;19.824;2023-04-24T14:16:35;7.75;7.75;6.00
55304;PMS7003;65692;51.378;19.824;2023-04-24T14:19:01;8.00;8.00;7.50
55304;PMS7003;65692;51.378;19.824;2023-04-24T14:21:27;9.75;9.75;8.00
55304;PMS7003;65692;51.378;19.824;2023-04-24T14:23:54;10.00;9.00;7.25
55304;PMS7003;65692;51.378;19.824;2023-04-24T14:26:20;12.50;11.00;9.50
55304;PMS7003;65692;51.378;19.824;2023-04-24T14:28:47;11.75;9.00;7.25
55304;PMS7003;65692;51.378;19.824;2023-04-24T14:31:14;12.75;10.25;8.75
55304;PMS7003;65692;51.378;19.824;2023-04-24T14:33:40;9.50;9.50;8.25
55304;PMS7003;65692;51.378;19.824;2023-04-24T14:36:07;12.00;11.25;10.25
55304;PMS7003;65692;51.378;19.824;2023-04-24T14:38:33;15.00;13.25;10.00
55304;PMS7003;65692;51.378;19.824;2023-04-24T14:41:00;13.00;11.50;9.50
55304;PMS7003;65692;51.378;19.824;2023-04-24T14:43:32;11.75;10.50;8.75
55304;PMS7003;65692;51.378;19.824;2023-04-24T14:45:59;10.75;10.75;9.00
55304;PMS7003;65692;51.378;19.824;2023-04-24T14:48:26;15.75;13.75;11.25
55304;PMS7003;65692;51.378;19.824;2023-04-24T14:50:53;7.00;5.25;4.50
55304;PMS7003;65692;51.378;19.824;2023-04-24T14:53:19;11.75;9.00;8.00
55304;PMS7003;65692;51.378;19.824;2023-04-24T14:55:45;9.00;8.75;7.75
55304;PMS7003;65692;51.378;19.824;2023-04-24T14:58:12;10.50;10.25;8.50
55304;PMS7003;65692;51.378;19.824;2023-04-24T15:00:38;13.25;11.25;8.50
55304;PMS7003;65692;51.378;19.824;2023-04-24T15:03:05;14.00;12.50;9.50
55304;PMS7003;65692;51.378;19.824;2023-04-24T15:05:32;9.00;9.00;7.50
55304;PMS7003;65692;51.378;19.824;2023-04-24T15:07:59;14.50;11.75;10.00
55304;PMS7003;65692;51.378;19.824;2023-04-24T15:10:25;15.25;12.00;9.50
55304;PMS7003;65692;51.378;19.824;2023-04-24T15:12:52;16.75;13.25;10.75
55304;PMS7003;65692;51.378;19.824;2023-04-24T15:15:18;10.75;10.00;7.75
55304;PMS7003;65692;51.378;19.824;2023-04-24T15:17:44;13.25;11.75;10.75
55304;PMS7003;65692;51.378;19.824;2023-04-24T15:20:11;8.25;8.25;7.00
55304;PMS7003;65692;51.378;19.824;2023-04-24T15:22:37;12.25;9.75;8.75
55304;PMS7003;65692;51.378;19.824;2023-04-24T15:25:04;10.50;10.00;8.75
55304;PMS7003;65692;51.378;19.824;2023-04-24T15:27:41;11.00;11.00;10.75
55304;PMS7003;65692;51.378;19.824;2023-04-24T15:30:09;11.50;11.50;9.50
55304;PMS7003;65692;51.378;19.824;2023-04-24T15:32:36;13.25;10.25;8.75
55304;PMS7003;65692;51.378;19.824;2023-04-24T15:35:02;14.50;12.75;10.25
55304;PMS7003;65692;51.378;19.824;2023-04-24T15:37:34;20.50;17.50;11.75
55304;PMS7003;65692;51.378;19.824;2023-04-24T15:40:01;27.00;24.25;16.25
55304;PMS7003;65692;51.378;19.824;2023-04-24T15:42:30;24.25;21.50;15.00
55304;PMS7003;65692;51.378;19.824;2023-04-24T15:44:56;16.25;15.50;12.25
55304;PMS7003;65692;51.378;19.824;2023-04-24T15:47:24;14.75;13.50;11.75
55304;PMS7003;65692;51.378;19.824;2023-04-24T15:49:51;16.50;16.00;13.50
55304;PMS7003;65692;51.378;19.824;2023-04-24T15:52:17;13.75;13.25;10.00
55304;PMS7003;65692;51.378;19.824;2023-04-24T15:54:44;15.75;15.00;12.75
55304;PMS7003;65692;51.378;19.824;2023-04-24T15:57:10;18.75;16.25;12.75
55304;PMS7003;65692;51.378;19.824;2023-04-24T15:59:38;13.00;13.00;11.00
55304;PMS7003;65692;51.378;19.824;2023-04-24T16:02:05;17.00;15.00;12.25
55304;PMS7003;65692;51.378;19.824;2023-04-24T16:04:33;15.75;15.75;13.75
55304;PMS7003;65692;51.378;19.824;2023-04-24T16:07:00;17.50;14.25;13.00
55304;PMS7003;65692;51.378;19.824;2023-04-24T16:09:27;16.75;15.50;13.00
55304;PMS7003;65692;51.378;19.824;2023-04-24T16:11:53;21.25;18.50;15.50
55304;PMS7003;65692;51.378;19.824;2023-04-24T16:14:20;20.50;18.25;15.25
55304;PMS7003;65692;51.378;19.824;2023-04-24T16:16:47;12.00;11.50;10.75
55304;PMS7003;65692;51.378;19.824;2023-04-24T16:19:13;15.50;14.25;12.50
55304;PMS7003;65692;51.378;19.824;2023-04-24T16:21:41;13.25;12.25;11.00
55304;PMS7003;65692;51.378;19.824;2023-04-24T16:24:07;18.75;18.75;13.50
55304;PMS7003;65692;51.378;19.824;2023-04-24T16:26:34;20.50;17.25;13.75
55304;PMS7003;65692;51.378;19.824;2023-04-24T16:29:00;19.75;17.25;14.00
55304;PMS7003;65692;51.378;19.824;2023-04-24T16:31:27;17.25;16.75;13.50
55304;PMS7003;65692;51.378;19.824;2023-04-24T16:33:53;20.00;18.25;15.00
55304;PMS7003;65692;51.378;19.824;2023-04-24T16:36:20;23.75;23.25;17.50
55304;PMS7003;65692;51.378;19.824;2023-04-24T16:38:47;24.50;21.25;16.50
55304;PMS7003;65692;51.378;19.824;2023-04-24T16:41:15;25.00;23.50;18.00
55304;PMS7003;65692;51.378;19.824;2023-04-24T16:43:42;27.50;22.75;18.75
55304;PMS7003;65692;51.378;19.824;2023-04-24T16:46:08;26.50;23.25;18.00
55304;PMS7003;65692;51.378;19.824;2023-04-24T16:48:34;28.00;22.75;16.75
55304;PMS7003;65692;51.378;19.824;2023-04-24T16:51:01;24.75;20.25;15.50
55304;PMS7003;65692;51.378;19.824;2023-04-24T16:53:27;26.50;20.00;16.25
55304;PMS7003;65692;51.378;19.824;2023-04-24T16:55:54;18.25;16.75;14.50
55304;PMS7003;65692;51.378;19.824;2023-04-24T16:58:20;17.00;16.00;13.00
55304;PMS7003;65692;51.378;19.824;2023-04-24T17:00:47;15.25;15.25;12.00
55304;PMS7003;65692;51.378;19.824;2023-04-24T17:03:14;20.00;20.00;15.00
55304;PMS7003;65692;51.378;19.824;2023-04-24T17:05:40;24.50;23.50;17.75
55304;PMS7003;65692;51.378;19.824;2023-04-24T17:08:07;20.50;20.50;14.75
55304;PMS7003;65692;51.378;19.824;2023-04-24T17:10:33;25.00;21.50;18.25
55304;PMS7003;65692;51.378;19.824;2023-04-24T17:13:00;26.00;23.75;19.00
55304;PMS7003;65692;51.378;19.824;2023-04-24T17:15:26;35.50;31.25;22.00
55304;PMS7003;65692;51.378;19.824;2023-04-24T17:17:53;40.33;34.67;25.67
55304;PMS7003;65692;51.378;19.824;2023-04-24T17:20:20;80.75;73.50;54.25
55304;PMS7003;65692;51.378;19.824;2023-04-24T17:22:48;49.00;40.33;28.33
55304;PMS7003;65692;51.378;19.824;2023-04-24T17:25:15;36.00;32.33;24.00
55304;PMS7003;65692;51.378;19.824;2023-04-24T17:27:42;40.00;34.67;25.00
55304;PMS7003;65692;51.378;19.824;2023-04-24T17:30:09;36.67;34.00;25.00
55304;PMS7003;65692;51.378;19.824;2023-04-24T17:32:36;61.50;49.75;34.25
55304;PMS7003;65692;51.378;19.824;2023-04-24T17:35:02;40.67;34.00;24.00
55304;PMS7003;65692;51.378;19.824;2023-04-24T17:37:29;56.00;44.75;29.25
55304;PMS7003;65692;51.378;19.824;2023-04-24T17:39:56;35.75;30.75;22.00
55304;PMS7003;65692;51.378;19.824;2023-04-24T17:42:22;35.33;32.33;23.00
55304;PMS7003;65692;51.378;19.824;2023-04-24T17:44:49;32.25;30.25;21.75
55304;PMS7003;65692;51.378;19.824;2023-04-24T17:47:15;46.00;37.50;25.50
55304;PMS7003;65692;51.378;19.824;2023-04-24T17:49:42;74.00;56.25;37.00
55304;PMS7003;65692;51.378;19.824;2023-04-24T17:52:08;187.33;155.67;84.00
55304;PMS7003;65692;51.378;19.824;2023-04-24T17:54:37;59.25;47.25;29.00
55304;PMS7003;65692;51.378;19.824;2023-04-24T17:57:03;66.50;53.00;35.50
55304;PMS7003;65692;51.378;19.824;2023-04-24T17:59:30;23.00;16.50;13.50
55304;PMS7003;65692;51.378;19.824;2023-04-24T18:01:56;25.00;25.00;20.00
55304;PMS7003;65692;51.378;19.824;2023-04-24T18:04:23;21.50;20.00;14.25
55304;PMS7003;65692;51.378;19.824;2023-04-24T18:06:51;26.75;22.50;17.50
55304;PMS7003;65692;51.378;19.824;2023-04-24T18:09:18;20.50;17.50;14.25
55304;PMS7003;65692;51.378;19.824;2023-04-24T18:11:46;22.67;20.00;16.00
55304;PMS7003;65692;51.378;19.824;2023-04-24T18:14:14;20.75;19.50;15.00
55304;PMS7003;65692;51.378;19.824;2023-04-24T18:16:41;22.50;21.75;17.50
55304;PMS7003;65692;51.378;19.824;2023-04-24T18:19:08;25.25;24.50;17.75
55304;PMS7003;65692;51.378;19.824;2023-04-24T18:21:34;23.75;20.25;17.50
55304;PMS7003;65692;51.378;19.824;2023-04-24T18:24:01;109.75;83.00;41.50
55304;PMS7003;65692;51.378;19.824;2023-04-24T18:26:28;81.50;61.50;37.50
55304;PMS7003;65692;51.378;19.824;2023-04-24T18:28:57;213.33;156.67;81.33
55304;PMS7003;65692;51.378;19.824;2023-04-24T18:31:23;69.00;51.50;29.50
55304;PMS7003;65692;51.378;19.824;2023-04-24T18:33:50;42.33;36.00;24.33
55304;PMS7003;65692;51.378;19.824;2023-04-24T18:36:18;17.50;14.25;8.50
55304;PMS7003;65692;51.378;19.824;2023-04-24T18:38:45;30.50;30.00;20.50
55304;PMS7003;65692;51.378;19.824;2023-04-24T18:41:12;30.50;25.75;20.75
55304;PMS7003;65692;51.378;19.824;2023-04-24T18:43:39;34.25;29.75;22.25
55304;PMS7003;65692;51.378;19.824;2023-04-24T18:46:06;29.75;27.00;22.00
55304;PMS7003;65692;51.378;19.824;2023-04-24T18:48:32;30.25;26.50;20.50